In Rescue
 
Open Full Screen Window  High Contrast Mode
Wind Gusting 00 knots
08
May 25, 2022 9:34 PM EDT
Present Weather: Light Rain
Weather Information
Wind Direction
  120 °
Wind Speed
  08 kt (9 mph)
Wind Gust
  00 kt (0 mph)
Altimeter
29.91 in
Visibility
7 SM
Temperature
14° C
57° F
Dewpoint
13° C
55° F
Humidity
94%
Sky Condition
Overcast @ 5,000 ft
Broken @ 3,900 ft
Scattered @ 1,400 ft
VFR

METAR KCVX 260134Z AUTO 12008KT 7SM -RA SCT014 BKN039 OVC050 14/13 A2991 RMK AO2 T01350131

FAA Disclaimer: The data displayed is for advisory purposes only and is not to be used for flight planning or operations.